Terminal Aerodrome Forecast
Issued by NWS

Home | Current Version | Previous Version | Text Only | Print | Product List | Glossary Off
Versions: 1 2 3 4 5 6 7 8 9 10 11 12 13 14 15 16 17

000
FTUS43 KMPX 281100
TAFAXN
TAF
KAXN 281132Z 2812/2912 29017G22KT P6SM BKN015 OVC040
      TEMPO 2812/2815 BKN009
     FM281500 30020G30KT P6SM OVC015
     FM290000 30013G20KT P6SM BKN050
     FM290600 31009KT P6SM OVC100=

USA.gov is the U.S. government's official web portal to all federal, state and local government web resources and services.